createdAt,value
2023-05-22T00:00:18.196Z,17.6
2023-05-22T00:01:18.333Z,17.44
2023-05-22T00:02:18.507Z,17.68
2023-05-22T00:03:18.649Z,17.68
2023-05-22T00:04:18.788Z,17.6
2023-05-22T00:05:18.973Z,17.52
2023-05-22T00:06:19.040Z,17.52
2023-05-22T00:07:19.207Z,17.44
2023-05-22T00:08:19.347Z,17.2
2023-05-22T00:09:19.509Z,17.04
2023-05-22T00:10:19.605Z,17.12
2023-05-22T00:11:19.750Z,17.44
2023-05-22T00:12:19.902Z,17.28
2023-05-22T00:13:20.005Z,17.12
2023-05-22T00:14:20.152Z,17.28
2023-05-22T00:15:20.256Z,17.2
2023-05-22T00:16:20.383Z,17.52
2023-05-22T00:17:20.656Z,17.44
2023-05-22T00:18:20.663Z,17.04
2023-05-22T00:19:20.836Z,17.04
2023-05-22T00:20:20.968Z,17.04
2023-05-22T00:21:21.118Z,17.04
2023-05-22T00:22:21.220Z,17.12
2023-05-22T00:23:21.371Z,16.8
2023-05-22T00:24:21.530Z,16.64
2023-05-22T00:25:21.679Z,16.64
2023-05-22T00:26:21.829Z,16.8
2023-05-22T00:27:21.980Z,16.88
2023-05-22T00:28:22.132Z,16.88
2023-05-22T00:29:22.288Z,16.72
2023-05-22T00:30:22.429Z,16.72
2023-05-22T00:31:22.588Z,16.32
2023-05-22T00:32:22.764Z,16.32
2023-05-22T00:33:22.896Z,16.48
2023-05-22T00:34:23.092Z,16.48
2023-05-22T00:35:23.193Z,16.64
2023-05-22T00:36:23.344Z,16.72
2023-05-22T00:37:23.507Z,16.8
2023-05-22T00:38:23.646Z,16.8
2023-05-22T00:39:23.806Z,16.88
2023-05-22T00:40:23.952Z,17.04
2023-05-22T00:41:24.105Z,16.88
2023-05-22T00:42:24.334Z,16.72
2023-05-22T00:43:24.412Z,16.88
2023-05-22T00:44:24.537Z,16.8
2023-05-22T00:45:24.691Z,17.04
2023-05-22T00:46:25.195Z,17.04
2023-05-22T00:47:25.333Z,17.12
2023-05-22T00:48:25.441Z,16.88
2023-05-22T00:49:25.582Z,17.12
2023-05-22T00:50:25.387Z,17.12
2023-05-22T00:51:25.534Z,17.52
2023-05-22T00:52:25.685Z,17.52
2023-05-22T00:53:25.943Z,17.44
2023-05-22T00:54:26.001Z,17.28
2023-05-22T00:55:26.136Z,17.44
2023-05-22T00:56:26.283Z,17.2
2023-05-22T00:57:26.437Z,17.52
2023-05-22T00:58:26.627Z,17.44
2023-05-22T00:59:26.740Z,17.2
2023-05-22T01:00:26.890Z,17.44
2023-05-22T01:01:27.074Z,17.6
2023-05-22T01:02:27.191Z,17.68
2023-05-22T01:03:27.733Z,17.52
2023-05-22T01:04:27.500Z,17.52
2023-05-22T01:05:27.642Z,17.2
2023-05-22T01:06:27.811Z,17.2
2023-05-22T01:07:27.950Z,17.2
2023-05-22T01:08:28.104Z,17.28
2023-05-22T01:09:28.254Z,17.28
2023-05-22T01:10:28.359Z,17.44
2023-05-22T01:11:28.502Z,17.6
2023-05-22T01:12:28.691Z,17.6
2023-05-22T01:13:28.811Z,17.6
2023-05-22T01:14:28.974Z,17.6
2023-05-22T01:15:29.071Z,17.76
2023-05-22T01:16:29.231Z,17.68
2023-05-22T01:17:29.389Z,17.6
2023-05-22T01:18:29.540Z,17.52
2023-05-22T01:19:29.740Z,17.44
2023-05-22T01:20:30.149Z,17.44
2023-05-22T01:21:30.371Z,17.44
2023-05-22T01:22:30.458Z,17.6
2023-05-22T01:23:30.229Z,17.6
2023-05-22T01:24:30.337Z,17.52
2023-05-22T01:25:30.488Z,17.68
2023-05-22T01:26:30.642Z,17.6
2023-05-22T01:27:30.784Z,17.6
2023-05-22T01:28:30.937Z,17.44
2023-05-22T01:29:31.094Z,17.44
2023-05-22T01:30:31.239Z,17.44
2023-05-22T01:31:31.345Z,17.44
2023-05-22T01:32:31.568Z,17.28
2023-05-22T01:33:31.685Z,17.44
2023-05-22T01:34:31.752Z,17.2
2023-05-22T01:35:31.897Z,17.2
2023-05-22T01:36:32.057Z,17.2
2023-05-22T01:37:32.202Z,17.2
2023-05-22T01:38:32.358Z,17.04
2023-05-22T01:39:32.505Z,17.04
2023-05-22T01:40:32.655Z,17.12
2023-05-22T01:41:32.807Z,17.04
2023-05-22T01:42:32.911Z,17.04
2023-05-22T01:43:33.066Z,17.12
2023-05-22T01:44:33.221Z,17.12
2023-05-22T01:45:33.384Z,17.04
2023-05-22T01:46:33.474Z,17.12
2023-05-22T01:47:33.703Z,17.28
2023-05-22T01:48:33.824Z,17.2
2023-05-22T01:49:33.937Z,17.2
2023-05-22T01:50:34.092Z,17.12
2023-05-22T01:51:34.190Z,17.04
2023-05-22T01:52:34.332Z,16.88
2023-05-22T01:53:34.431Z,17.12
2023-05-22T01:54:34.596Z,16.88
2023-05-22T01:55:34.739Z,17.12
2023-05-22T01:56:34.891Z,17.12
2023-05-22T01:57:34.991Z,17.04
2023-05-22T01:58:35.147Z,17.12
2023-05-22T01:59:35.295Z,17.2
2023-05-22T02:00:35.447Z,17.2
2023-05-22T02:01:35.623Z,17.44
2023-05-22T02:02:35.850Z,17.28
2023-05-22T02:03:35.979Z,17.28
2023-05-22T02:04:36.071Z,17.28
2023-05-22T02:05:36.211Z,17.12
2023-05-22T02:06:36.313Z,17.28
2023-05-22T02:07:36.502Z,17.28
2023-05-22T02:08:36.611Z,17.12
2023-05-22T02:09:36.770Z,17.2
2023-05-22T02:10:36.952Z,17.44
2023-05-22T02:11:37.077Z,17.28
2023-05-22T02:12:37.216Z,17.2
2023-05-22T02:13:37.369Z,17.2
2023-05-22T02:14:37.522Z,17.2
2023-05-22T02:15:37.727Z,17.04
2023-05-22T02:16:37.775Z,17.04
2023-05-22T02:17:37.929Z,17.12
2023-05-22T02:18:38.104Z,16.88
2023-05-22T02:19:38.246Z,17.04
2023-05-22T02:20:38.507Z,17.04
2023-05-22T02:21:38.538Z,17.12
2023-05-22T02:22:38.704Z,17.2
2023-05-22T02:23:38.842Z,17.12
2023-05-22T02:24:38.946Z,17.12
2023-05-22T02:25:39.088Z,17.12
2023-05-22T02:26:39.240Z,17.12
2023-05-22T02:27:39.398Z,17.12
2023-05-22T02:28:39.550Z,16.88
2023-05-22T02:29:39.696Z,16.72
2023-05-22T02:30:40.014Z,16.72
2023-05-22T02:31:40.026Z,16.8
2023-05-22T02:32:40.178Z,16.8
2023-05-22T02:33:40.259Z,16.8
2023-05-22T02:34:40.411Z,16.8
2023-05-22T02:35:40.564Z,16.72
2023-05-22T02:36:40.662Z,16.88
2023-05-22T02:37:40.814Z,17.04
2023-05-22T02:38:40.975Z,16.8
2023-05-22T02:39:41.131Z,16.8
2023-05-22T02:40:41.730Z,16.64
2023-05-22T02:41:41.423Z,16.64
2023-05-22T02:42:41.837Z,16.64
2023-05-22T02:43:41.675Z,16.64
2023-05-22T02:44:41.997Z,16.48
2023-05-22T02:45:42.226Z,16.48
2023-05-22T02:46:42.431Z,16.72
2023-05-22T02:47:42.559Z,16.64
2023-05-22T02:48:42.702Z,16.64
2023-05-22T02:49:42.486Z,16.64
2023-05-22T02:50:42.630Z,16.64
2023-05-22T02:51:42.784Z,16.4
2023-05-22T02:52:42.936Z,16.48
2023-05-22T02:53:43.089Z,16.4
2023-05-22T02:54:43.262Z,16.32
2023-05-22T02:55:43.350Z,16.4
2023-05-22T02:56:43.524Z,16.24
2023-05-22T02:57:43.645Z,16.08
2023-05-22T02:58:43.749Z,16.24
2023-05-22T02:59:43.909Z,16.32
2023-05-22T03:00:44.049Z,16.24
2023-05-22T03:01:44.264Z,16.4
2023-05-22T03:02:44.448Z,16.24
2023-05-22T03:03:44.622Z,16.24
2023-05-22T03:04:44.671Z,16.24
2023-05-22T03:05:44.811Z,16.24
2023-05-22T03:06:44.916Z,16.08
2023-05-22T03:07:47.544Z,16.24
2023-05-22T03:08:45.223Z,16.08
2023-05-22T03:09:45.316Z,16
2023-05-22T03:10:45.475Z,16
2023-05-22T03:11:45.623Z,16
2023-05-22T03:12:45.777Z,15.92
2023-05-22T03:13:45.926Z,15.92
2023-05-22T03:14:46.081Z,16
2023-05-22T03:15:46.225Z,15.839999
2023-05-22T03:16:46.359Z,15.839999
2023-05-22T03:17:46.492Z,15.92
2023-05-22T03:18:46.659Z,15.92
2023-05-22T03:19:46.782Z,15.679999
2023-05-22T03:20:46.933Z,15.679999
2023-05-22T03:21:47.088Z,15.679999
2023-05-22T03:22:47.200Z,15.52
2023-05-22T03:23:47.342Z,15.679999
2023-05-22T03:24:47.500Z,15.44
2023-05-22T03:25:47.645Z,15.599999
2023-05-22T03:26:47.751Z,15.839999
2023-05-22T03:27:47.903Z,15.599999
2023-05-22T03:28:48.068Z,15.599999
2023-05-22T03:29:48.220Z,15.2
2023-05-22T03:30:48.369Z,14.88
2023-05-22T03:31:48.459Z,14.48
2023-05-22T03:32:48.632Z,14.48
2023-05-22T03:33:48.790Z,14.48
2023-05-22T03:34:48.913Z,14.48
2023-05-22T03:35:49.028Z,14.719999
2023-05-22T03:36:49.182Z,14.799999
2023-05-22T03:37:49.329Z,14.799999
2023-05-22T03:38:49.442Z,15.28
2023-05-22T03:39:49.574Z,15.44
2023-05-22T03:40:49.732Z,15.44
2023-05-22T03:41:49.906Z,15.52
2023-05-22T03:42:50.046Z,15.44
2023-05-22T03:43:50.181Z,15.599999
2023-05-22T03:44:50.332Z,15.52
2023-05-22T03:45:50.531Z,15.52
2023-05-22T03:46:50.594Z,15.599999
2023-05-22T03:47:50.771Z,15.679999
2023-05-22T03:48:50.898Z,15.92
2023-05-22T03:49:51.041Z,15.839999
2023-05-22T03:50:51.189Z,15.839999
2023-05-22T03:51:51.347Z,15.679999
2023-05-22T03:52:51.499Z,15.92
2023-05-22T03:53:51.612Z,16.08
2023-05-22T03:54:51.751Z,16.24
2023-05-22T03:55:51.903Z,16
2023-05-22T03:56:52.372Z,16
2023-05-22T03:57:52.164Z,15.92
2023-05-22T03:58:52.308Z,15.52
2023-05-22T03:59:52.460Z,15.12
2023-05-22T04:00:52.607Z,14.88
2023-05-22T04:01:52.762Z,14.88
2023-05-22T04:02:52.946Z,14.88
2023-05-22T04:03:53.069Z,15.28
2023-05-22T04:04:53.238Z,15.599999
2023-05-22T04:05:53.384Z,15.839999
2023-05-22T04:06:53.534Z,15.839999
2023-05-22T04:07:53.640Z,16
2023-05-22T04:08:53.780Z,16.08
2023-05-22T04:09:53.922Z,16.24
2023-05-22T04:10:54.070Z,16.24
2023-05-22T04:11:54.231Z,16.24
2023-05-22T04:12:54.388Z,16.24
2023-05-22T04:13:54.543Z,16.24
2023-05-22T04:14:55.408Z,16.24
2023-05-22T04:15:54.819Z,16.24
2023-05-22T04:16:54.943Z,16.24
2023-05-22T04:17:55.153Z,16.4
2023-05-22T04:18:55.260Z,16.24
2023-05-22T04:19:55.813Z,16.32
2023-05-22T04:21:56.454Z,16.24
2023-05-22T04:22:55.800Z,16.32
2023-05-22T04:23:56.060Z,16.24
2023-05-22T04:24:56.210Z,16.4
2023-05-22T04:25:56.350Z,16.4
2023-05-22T04:26:56.501Z,16.32
2023-05-22T04:27:56.654Z,16.32
2023-05-22T04:28:56.805Z,16.4
2023-05-22T04:29:56.961Z,16.32
2023-05-22T04:30:57.137Z,16.32
2023-05-22T04:31:57.267Z,16.32
2023-05-22T04:32:57.430Z,16.4
2023-05-22T04:33:57.569Z,16.4
2023-05-22T04:34:57.717Z,16.4
2023-05-22T04:35:57.868Z,16.4
2023-05-22T04:36:58.019Z,16.48
2023-05-22T04:37:58.171Z,16.48
2023-05-22T04:38:58.328Z,16.64
2023-05-22T04:39:58.482Z,16.72
2023-05-22T04:40:58.637Z,16.72
2023-05-22T04:41:58.781Z,16.8
2023-05-22T04:42:58.906Z,16.88
2023-05-22T04:43:59.041Z,16.88
2023-05-22T04:44:59.189Z,16.88
2023-05-22T04:45:59.256Z,16.88
2023-05-22T04:46:59.523Z,17.04
2023-05-22T04:47:59.570Z,16.88
2023-05-22T04:48:59.603Z,17.12
2023-05-22T04:49:59.748Z,17.12
2023-05-22T04:50:59.846Z,17.2
2023-05-22T04:52:00.007Z,17.2
2023-05-22T04:53:00.153Z,17.44
2023-05-22T04:54:00.304Z,17.44
2023-05-22T04:55:01.206Z,17.52
2023-05-22T04:56:00.610Z,17.68
2023-05-22T04:57:00.760Z,17.92
2023-05-22T04:58:00.866Z,18.08
2023-05-22T04:59:01.016Z,18.32
2023-05-22T05:00:01.159Z,18.4
2023-05-22T05:01:01.389Z,18.32
2023-05-22T05:02:01.419Z,18.64
2023-05-22T05:03:01.651Z,18.88
2023-05-22T05:04:01.757Z,19.04
2023-05-22T05:05:01.889Z,19.04
2023-05-22T05:06:02.045Z,18.88
2023-05-22T05:07:02.179Z,19.12
2023-05-22T05:08:02.325Z,19.2
2023-05-22T05:09:02.477Z,19.2
2023-05-22T05:10:02.596Z,19.12
2023-05-22T05:11:02.743Z,18.8
2023-05-22T05:12:02.888Z,18.72
2023-05-22T05:13:03.047Z,18.8
2023-05-22T05:14:03.188Z,18.88
2023-05-22T05:15:03.339Z,19.28
2023-05-22T05:16:03.510Z,18.88
2023-05-22T05:17:03.721Z,19.04
2023-05-22T05:18:03.774Z,19.44
2023-05-22T05:19:03.980Z,19.28
2023-05-22T05:20:04.057Z,19.44
2023-05-22T05:21:04.148Z,19.52
2023-05-22T05:22:04.324Z,19.44
2023-05-22T05:23:04.451Z,19.6
2023-05-22T05:24:04.561Z,19.92
2023-05-22T05:25:04.729Z,20.24
2023-05-22T05:26:04.879Z,20.4
2023-05-22T05:27:04.964Z,19.68
2023-05-22T05:28:05.098Z,19.76
2023-05-22T05:29:05.215Z,19.68
2023-05-22T05:30:05.373Z,19.68
2023-05-22T05:31:05.537Z,19.92
2023-05-22T05:32:05.725Z,20
2023-05-22T05:33:05.865Z,19.92
2023-05-22T05:34:05.929Z,19.76
2023-05-22T05:35:06.078Z,19.92
2023-05-22T05:36:06.224Z,20.32
2023-05-22T05:37:06.402Z,20.08
2023-05-22T05:38:06.485Z,20
2023-05-22T05:39:06.647Z,19.68
2023-05-22T05:40:06.789Z,20.08
2023-05-22T05:41:06.921Z,20.24
2023-05-22T05:42:07.036Z,20.48
2023-05-22T05:43:08.536Z,20.48
2023-05-22T05:44:07.346Z,21.04
2023-05-22T05:45:07.494Z,20.32
2023-05-22T05:46:07.682Z,20.64
2023-05-22T05:47:07.808Z,20.48
2023-05-22T05:48:08.009Z,20.32
2023-05-22T05:49:08.052Z,20.4
2023-05-22T05:50:08.161Z,20.72
2023-05-22T05:51:08.304Z,20.72
2023-05-22T05:52:08.476Z,21.04
2023-05-22T05:53:08.616Z,20.8
2023-05-22T05:54:08.772Z,21.12
2023-05-22T05:55:08.864Z,20.64
2023-05-22T05:56:09.012Z,20.72
2023-05-22T05:57:09.216Z,20.88
2023-05-22T05:58:09.317Z,20.8
2023-05-22T05:59:09.426Z,21.2
2023-05-22T06:00:09.575Z,21.44
2023-05-22T06:01:09.725Z,21.6
2023-05-22T06:02:09.875Z,22
2023-05-22T06:03:10.037Z,21.44
2023-05-22T06:04:10.082Z,21.84
2023-05-22T06:05:10.259Z,21.52
2023-05-22T06:06:10.400Z,21.44
2023-05-22T06:07:10.536Z,21.2
2023-05-22T06:08:10.689Z,21.28
2023-05-22T06:09:10.848Z,21.6
2023-05-22T06:10:10.958Z,21.28
2023-05-22T06:11:11.096Z,21.28
2023-05-22T06:12:11.206Z,21.92
2023-05-22T06:13:11.364Z,22
2023-05-22T06:14:11.496Z,22.24
2023-05-22T06:15:11.656Z,22.08
2023-05-22T06:16:11.812Z,21.92
2023-05-22T06:17:11.950Z,22.4
2023-05-22T06:18:12.090Z,22.4
2023-05-22T06:19:12.215Z,22.48
2023-05-22T06:20:12.355Z,21.68
2023-05-22T06:21:12.515Z,21.44
2023-05-22T06:22:12.672Z,22.48
2023-05-22T06:23:12.814Z,22.64
2023-05-22T06:24:12.922Z,22.48
2023-05-22T06:25:13.076Z,22.4
2023-05-22T06:26:13.179Z,22.48
2023-05-22T06:27:13.274Z,22.24
2023-05-22T06:28:13.372Z,22.32
2023-05-22T06:29:13.527Z,22.8
2023-05-22T06:30:13.683Z,23.04
2023-05-22T06:31:13.838Z,23.6
2023-05-22T06:32:14.002Z,23.52
2023-05-22T06:33:14.133Z,23.52
2023-05-22T06:34:14.254Z,23.92
2023-05-22T06:35:14.391Z,23.44
2023-05-22T06:36:14.498Z,23.12
2023-05-22T06:37:14.637Z,22.72
2023-05-22T06:38:14.750Z,23.44
2023-05-22T06:39:14.907Z,22.88
2023-05-22T06:40:15.054Z,23.44
2023-05-22T06:41:15.195Z,23.68
2023-05-22T06:42:15.361Z,25.04
2023-05-22T06:43:15.503Z,25.28
2023-05-22T06:44:15.651Z,24.88
2023-05-22T06:45:15.811Z,24.4
2023-05-22T06:46:16.015Z,24.8
2023-05-22T06:47:16.112Z,25.28
2023-05-22T06:48:16.226Z,25.92
2023-05-22T06:49:16.358Z,25.6
2023-05-22T06:50:16.521Z,25.84
2023-05-22T06:51:16.675Z,25.28
2023-05-22T06:52:16.773Z,26.24
2023-05-22T06:53:16.939Z,26
2023-05-22T06:54:17.088Z,25.84
2023-05-22T06:55:17.282Z,25.28
2023-05-22T06:56:17.372Z,25.52
2023-05-22T06:57:17.526Z,25.84
2023-05-22T06:58:17.678Z,24.4
2023-05-22T06:59:17.829Z,25.44
2023-05-22T07:00:19.653Z,24.32
2023-05-22T07:01:18.199Z,25.12
2023-05-22T07:02:18.294Z,25.6
2023-05-22T07:03:18.430Z,25.84
2023-05-22T07:04:18.601Z,26.4
2023-05-22T07:05:18.694Z,24.88
2023-05-22T07:06:18.871Z,24.72
2023-05-22T07:07:18.993Z,25.68
2023-05-22T07:08:19.140Z,25.28
2023-05-22T07:09:19.309Z,25.84
2023-05-22T07:10:19.532Z,25.84
2023-05-22T07:11:19.649Z,27.04
2023-05-22T07:12:19.757Z,27.28
2023-05-22T07:13:19.904Z,26
2023-05-22T07:14:20.057Z,26.24
2023-05-22T07:15:20.204Z,27.68
2023-05-22T07:16:20.354Z,26.8
2023-05-22T07:17:20.543Z,25.92
2023-05-22T07:18:20.610Z,25.6
2023-05-22T07:19:20.794Z,25.92
2023-05-22T07:20:20.886Z,27.6
2023-05-22T07:21:21.025Z,27.04
2023-05-22T07:22:21.166Z,26.32
2023-05-22T07:23:21.350Z,27.68
2023-05-22T07:24:21.478Z,27.92
2023-05-22T07:25:21.621Z,27.44
2023-05-22T07:26:21.773Z,27.6
2023-05-22T07:27:21.889Z,27.44
2023-05-22T07:28:22.033Z,27.44
2023-05-22T07:29:23.246Z,27.2
2023-05-22T07:30:22.300Z,27.2
2023-05-22T07:31:22.506Z,27.44
2023-05-22T07:32:22.629Z,27.2
2023-05-22T07:33:22.698Z,26.24
2023-05-22T07:34:22.840Z,26.72
2023-05-22T07:35:22.963Z,27.6
2023-05-22T07:36:23.109Z,27.28
2023-05-22T07:37:23.253Z,26.08
2023-05-22T07:38:23.354Z,27.6
2023-05-22T07:39:23.503Z,27.92
2023-05-22T07:40:24.472Z,27.92
2023-05-22T07:41:23.764Z,27.12
2023-05-22T07:42:23.912Z,27.52
2023-05-22T07:43:24.074Z,28.08
2023-05-22T07:44:24.171Z,27.92
2023-05-22T07:45:24.334Z,27.52
2023-05-22T07:46:24.493Z,27.92
2023-05-22T07:47:24.646Z,28.48
2023-05-22T07:48:24.788Z,28.8
2023-05-22T07:49:24.914Z,28.72
2023-05-22T07:50:25.085Z,27.52
2023-05-22T07:51:25.238Z,28.72
2023-05-22T07:52:25.376Z,29.44
2023-05-22T07:53:25.529Z,29.84
2023-05-22T07:54:25.703Z,30.32
2023-05-22T07:55:25.844Z,30.4
2023-05-22T07:56:25.983Z,29.6
2023-05-22T07:57:26.127Z,29.52
2023-05-22T07:58:26.280Z,28.08
2023-05-22T07:59:26.435Z,29.44
2023-05-22T08:00:26.574Z,28.64
2023-05-22T08:01:26.697Z,29.04
2023-05-22T08:02:27.444Z,30
2023-05-22T08:03:27.025Z,30.4
2023-05-22T08:04:27.175Z,28.8
2023-05-22T08:05:27.254Z,28.4
2023-05-22T08:06:27.424Z,30.24
2023-05-22T08:07:27.518Z,31.2
2023-05-22T08:08:28.436Z,31.28
2023-05-22T08:09:27.802Z,31.6
2023-05-22T08:10:30.202Z,31.04
2023-05-22T08:11:28.127Z,30.48
2023-05-22T08:12:28.280Z,30.24
2023-05-22T08:13:28.361Z,31.2
2023-05-22T08:14:28.696Z,29.92
2023-05-22T08:15:28.935Z,29.52
2023-05-22T08:16:29.416Z,27.6
2023-05-22T08:17:29.244Z,28.8
2023-05-22T08:18:29.899Z,30.64
2023-05-22T08:19:29.554Z,30.48
2023-05-22T08:20:29.761Z,28.48
2023-05-22T08:21:29.838Z,28.24
2023-05-22T08:22:30.026Z,29.44
2023-05-22T08:23:29.794Z,30.08
2023-05-22T08:24:29.880Z,31.28
2023-05-22T08:25:30.026Z,32.24
2023-05-22T08:26:32.184Z,31.52
2023-05-22T08:27:30.331Z,30.4
2023-05-22T08:28:30.452Z,31.2
2023-05-22T08:29:30.582Z,29.2
2023-05-22T08:30:30.730Z,29.28
2023-05-22T08:31:30.990Z,28.8
2023-05-22T08:32:31.307Z,28.72
2023-05-22T08:33:31.099Z,28.72
2023-05-22T08:34:31.246Z,27.6
2023-05-22T08:35:31.394Z,27.44
2023-05-22T08:36:31.522Z,28
2023-05-22T08:37:31.607Z,27.44
2023-05-22T08:38:31.765Z,26.32
2023-05-22T08:39:31.897Z,27.2
2023-05-22T08:40:32.063Z,27.52
2023-05-22T08:41:32.204Z,27.84
2023-05-22T08:42:32.362Z,27.52
2023-05-22T08:43:32.490Z,26.4
2023-05-22T08:44:32.612Z,26.64
2023-05-22T08:45:32.760Z,27.04
2023-05-22T08:46:32.920Z,27.44
2023-05-22T08:47:33.083Z,27.84
2023-05-22T08:48:33.219Z,27.92
2023-05-22T08:49:33.322Z,27.68
2023-05-22T08:50:33.473Z,27.28
2023-05-22T08:51:33.625Z,26.64
2023-05-22T08:52:33.770Z,27.12
2023-05-22T08:53:33.933Z,26.08
2023-05-22T08:54:34.101Z,26.64
2023-05-22T08:55:34.227Z,26.88
2023-05-22T08:56:37.361Z,26.88
2023-05-22T08:57:34.538Z,26.64
2023-05-22T08:58:34.683Z,26.4
2023-05-22T08:59:34.833Z,26.08
2023-05-22T09:00:34.990Z,26.88
2023-05-22T09:01:35.135Z,28.72
2023-05-22T09:02:35.287Z,28.24
2023-05-22T09:03:35.412Z,29.12
2023-05-22T09:04:35.562Z,28.4
2023-05-22T09:05:35.698Z,27.92
2023-05-22T09:06:35.862Z,26.8
2023-05-22T09:07:35.953Z,26.88
2023-05-22T09:08:36.109Z,27.52
2023-05-22T09:09:36.255Z,26.64
2023-05-22T09:10:36.417Z,26.4
2023-05-22T09:11:36.558Z,27.92
2023-05-22T09:12:36.716Z,28.08
2023-05-22T09:13:36.875Z,27.68
2023-05-22T09:14:36.982Z,27.2
2023-05-22T09:16:37.566Z,27.68
2023-05-22T09:17:37.720Z,27.44
2023-05-22T09:18:37.806Z,26.48
2023-05-22T09:19:38.053Z,26.4
2023-05-22T09:20:38.692Z,26.88
2023-05-22T09:21:38.237Z,27.28
2023-05-22T09:22:38.088Z,27.28
2023-05-22T09:23:38.185Z,27.12
2023-05-22T09:24:38.338Z,27.12
2023-05-22T09:25:38.492Z,27.68
2023-05-22T09:26:38.642Z,27.6
2023-05-22T09:27:38.791Z,26.8
2023-05-22T09:28:38.943Z,28.08
2023-05-22T09:29:39.095Z,29.12
2023-05-22T09:30:39.618Z,29.52
2023-05-22T09:31:39.465Z,28.8
2023-05-22T09:32:39.540Z,28.72
2023-05-22T09:33:39.665Z,28.72
2023-05-22T09:34:39.824Z,27.44
2023-05-22T09:35:39.953Z,27.52
2023-05-22T09:36:40.107Z,27.68
2023-05-22T09:37:40.267Z,28.08
2023-05-22T09:38:40.365Z,28.24
2023-05-22T09:39:40.478Z,28.48
2023-05-22T09:40:40.728Z,28.72
2023-05-22T09:41:40.780Z,28.72
2023-05-22T09:42:40.920Z,28.8
2023-05-22T09:43:41.076Z,28.32
2023-05-22T09:44:41.222Z,28.4
2023-05-22T09:45:41.332Z,29.2
2023-05-22T09:46:41.758Z,29.52
2023-05-22T09:47:41.607Z,29.52
2023-05-22T09:48:41.732Z,28.88
2023-05-22T09:49:41.882Z,28.48
2023-05-22T09:50:41.996Z,29.12
2023-05-22T09:51:42.150Z,29.68
2023-05-22T09:52:42.241Z,28.4
2023-05-22T09:53:42.525Z,27.44
2023-05-22T09:54:42.695Z,28.24
2023-05-22T09:55:42.838Z,27.68
2023-05-22T09:56:43.115Z,28.08
2023-05-22T09:57:43.146Z,28.64
2023-05-22T09:58:43.309Z,28.4
2023-05-22T09:59:43.452Z,28.64
2023-05-22T10:00:43.604Z,28.72
2023-05-22T10:01:43.764Z,28.08
2023-05-22T10:02:43.956Z,28.32
2023-05-22T10:03:44.047Z,28.8
2023-05-22T10:04:44.237Z,28.8
2023-05-22T10:05:44.317Z,28.88
2023-05-22T10:06:44.474Z,29.04
2023-05-22T10:07:44.614Z,28.88
2023-05-22T10:08:44.763Z,28.64
2023-05-22T10:09:44.927Z,28.72
2023-05-22T10:10:45.069Z,28.48
2023-05-22T10:11:45.184Z,29.2
2023-05-22T10:12:45.292Z,29.28
2023-05-22T10:13:45.439Z,28.24
2023-05-22T10:14:45.605Z,27.2
2023-05-22T10:15:45.745Z,27.28
2023-05-22T10:16:45.879Z,27.52
2023-05-22T10:17:46.062Z,27.68
2023-05-22T10:18:46.324Z,27.6
2023-05-22T10:19:46.929Z,27.84
2023-05-22T10:20:46.499Z,26.88
2023-05-22T10:21:46.645Z,26.88
2023-05-22T10:22:46.791Z,26.88
2023-05-22T10:23:46.943Z,27.28
2023-05-22T10:24:47.103Z,27.92
2023-05-22T10:25:47.276Z,29.2
2023-05-22T10:26:47.414Z,27.92
2023-05-22T10:27:47.518Z,27.44
2023-05-22T10:28:47.677Z,28
2023-05-22T10:29:47.814Z,28.64
2023-05-22T10:30:47.966Z,27.68
2023-05-22T10:31:48.117Z,27.6
2023-05-22T10:32:48.310Z,27.52
2023-05-22T10:33:48.484Z,27.84
2023-05-22T10:34:48.573Z,28.24
2023-05-22T10:35:48.715Z,28
2023-05-22T10:36:48.985Z,29.2
2023-05-22T10:37:48.982Z,28.48
2023-05-22T10:38:49.128Z,28.24
2023-05-22T10:39:49.270Z,27.52
2023-05-22T10:40:49.430Z,27.12
2023-05-22T10:41:49.581Z,27.52
2023-05-22T10:42:49.732Z,27.2
2023-05-22T10:43:49.883Z,27.12
2023-05-22T10:44:50.072Z,27.68
2023-05-22T10:45:50.254Z,28.48
2023-05-22T10:46:50.287Z,28.72
2023-05-22T10:47:50.497Z,28.64
2023-05-22T10:48:50.930Z,29.28
2023-05-22T10:49:51.133Z,30.32
2023-05-22T10:50:50.902Z,30.48
2023-05-22T10:51:51.080Z,30.32
2023-05-22T10:52:51.197Z,29.44
2023-05-22T10:53:51.357Z,29.68
2023-05-22T10:54:51.498Z,29.04
2023-05-22T10:55:51.972Z,27.92
2023-05-22T10:56:52.096Z,28.24
2023-05-22T10:57:52.222Z,28.64
2023-05-22T10:58:52.398Z,29.52
2023-05-22T10:59:52.411Z,29.84
2023-05-22T11:00:52.637Z,30
2023-05-22T11:01:52.433Z,29.28
2023-05-22T11:02:52.600Z,28.4
2023-05-22T11:03:52.720Z,30
2023-05-22T11:04:52.898Z,29.44
2023-05-22T11:05:53.029Z,30
2023-05-22T11:06:53.175Z,30.32
2023-05-22T11:07:53.333Z,30.72
2023-05-22T11:08:53.486Z,30.24
2023-05-22T11:09:53.657Z,29.52
2023-05-22T11:10:53.845Z,28.8
2023-05-22T11:11:54.001Z,30
2023-05-22T11:12:54.146Z,31.2
2023-05-22T11:13:54.289Z,31.04
2023-05-22T11:14:54.442Z,30.88
2023-05-22T11:15:54.558Z,30.32
2023-05-22T11:16:54.730Z,30.08
2023-05-22T11:17:54.837Z,29.92
2023-05-22T11:18:55.214Z,29.84
2023-05-22T11:19:55.123Z,30.48
2023-05-22T11:20:55.251Z,28.64
2023-05-22T11:21:55.413Z,29.68
2023-05-22T11:22:55.574Z,29.04
2023-05-22T11:23:55.715Z,29.68
2023-05-22T11:24:55.863Z,29.04
2023-05-22T11:25:56.015Z,28.4
2023-05-22T11:26:56.170Z,28.8
2023-05-22T11:27:56.455Z,29.92
2023-05-22T11:28:56.473Z,29.28
2023-05-22T11:29:56.614Z,29.28
2023-05-22T11:30:56.745Z,30.64
2023-05-22T11:31:56.820Z,30.24
2023-05-22T11:32:56.996Z,29.04
2023-05-22T11:33:57.127Z,29.92
2023-05-22T11:34:57.288Z,30.48
2023-05-22T11:35:57.432Z,30.8
2023-05-22T11:36:57.584Z,30.72
2023-05-22T11:37:57.689Z,29.84
2023-05-22T11:38:57.783Z,30.64
2023-05-22T11:39:57.949Z,30.08
2023-05-22T11:40:58.091Z,30.08
2023-05-22T11:41:58.244Z,30.24
2023-05-22T11:42:58.404Z,28.72
2023-05-22T11:43:58.545Z,30
2023-05-22T11:44:58.707Z,29.92
2023-05-22T11:45:58.870Z,30
2023-05-22T11:46:58.997Z,30
2023-05-22T11:47:59.207Z,29.6
2023-05-22T11:48:59.308Z,29.84
2023-05-22T11:49:59.406Z,30.32
2023-05-22T11:50:59.509Z,30
2023-05-22T11:51:59.678Z,28.8
2023-05-22T11:52:59.825Z,29.28
2023-05-22T11:53:59.963Z,29.44
2023-05-22T11:55:00.114Z,29.6
2023-05-22T11:56:00.265Z,29.84
2023-05-22T11:57:00.413Z,29.12
2023-05-22T11:58:00.560Z,29.84
2023-05-22T11:59:00.715Z,30.08
2023-05-22T12:00:00.906Z,30.08
2023-05-22T12:01:00.972Z,30.4
2023-05-22T12:02:01.079Z,30.08
2023-05-22T12:03:01.300Z,30.8
2023-05-22T12:04:01.393Z,29.6
2023-05-22T12:05:01.430Z,29.84
2023-05-22T12:06:01.621Z,30.48
2023-05-22T12:07:01.741Z,31.28
2023-05-22T12:08:01.882Z,31.68
2023-05-22T12:09:02.047Z,31.6
2023-05-22T12:10:02.207Z,31.44
2023-05-22T12:11:02.344Z,30.88
2023-05-22T12:12:02.489Z,31.44
2023-05-22T12:13:02.634Z,31.2
2023-05-22T12:14:02.787Z,31.04
2023-05-22T12:15:02.889Z,30.48
2023-05-22T12:16:03.060Z,30.72
2023-05-22T12:17:03.169Z,29.2
2023-05-22T12:18:03.275Z,30.64
2023-05-22T12:19:03.428Z,30.4
2023-05-22T12:20:03.555Z,30.08
2023-05-22T12:21:03.707Z,30.88
2023-05-22T12:22:03.864Z,31.2
2023-05-22T12:23:04.001Z,31.12
2023-05-22T12:24:04.186Z,32.08
2023-05-22T12:25:04.307Z,31.28
2023-05-22T12:26:04.456Z,30.8
2023-05-22T12:27:04.619Z,29.52
2023-05-22T12:28:04.769Z,29.12
2023-05-22T12:29:04.917Z,29.28
2023-05-22T12:30:05.071Z,29.2
2023-05-22T12:31:05.258Z,29.52
2023-05-22T12:32:05.338Z,28.8
2023-05-22T12:33:05.503Z,29.12
2023-05-22T12:34:05.627Z,29.44
2023-05-22T12:35:05.776Z,28.48
2023-05-22T12:36:05.932Z,27.52
2023-05-22T12:37:06.030Z,27.2
2023-05-22T12:38:06.180Z,26.72
2023-05-22T12:39:06.390Z,27.2
2023-05-22T12:40:06.483Z,28
2023-05-22T12:41:06.641Z,27.84
2023-05-22T12:42:06.793Z,27.2
2023-05-22T12:43:06.959Z,27.52
2023-05-22T12:44:07.095Z,27.6
2023-05-22T12:45:07.203Z,27.44
2023-05-22T12:46:07.408Z,27.28
2023-05-22T12:47:07.501Z,26.24
2023-05-22T12:48:07.728Z,26.64
2023-05-22T12:49:07.803Z,27.04
2023-05-22T12:50:07.902Z,27.04
2023-05-22T12:51:08.040Z,26.64
2023-05-22T12:52:08.205Z,26.72
2023-05-22T12:53:08.304Z,26.4
2023-05-22T12:54:08.459Z,25.84
2023-05-22T12:55:08.643Z,26.08
2023-05-22T12:56:08.778Z,26
2023-05-22T12:57:08.890Z,26.24
2023-05-22T12:58:09.052Z,26
2023-05-22T12:59:09.174Z,26.08
2023-05-22T13:00:09.339Z,26.08
2023-05-22T13:01:09.504Z,26.08